Time;durP1;ratioP1;P1;durP2;ratioP2;P2;SDS_P1;SDS_P2;PMS_P1;PMS_P2;Temp;Humidity;BMP_temperature;BMP_pressure;BME280_temperature;BME280_humidity;BME280_pressure;Samples;Min_cycle;Max_cycle;Signal;HPM_P1;HPM_P2
2024/03/16 00:01:25;;;;;;;5.13;0.82;;;18.90;67.30;;;;;;5092010;28;20197;-47
2024/03/16 00:03:52;;;;;;;6.85;0.90;;;18.80;67.30;;;;;;5103733;28;20407;-47
2024/03/16 00:06:18;;;;;;;5.60;1.00;;;18.90;67.80;;;;;;5112071;28;20064;-47
2024/03/16 00:08:45;;;;;;;3.38;0.60;;;19.00;67.90;;;;;;5109422;28;20064;-48
2024/03/16 00:11:11;;;;;;;5.07;1.13;;;18.90;68.10;;;;;;5110647;28;20070;-47
2024/03/16 00:13:38;;;;;;;6.45;1.08;;;18.80;68.60;;;;;;5119968;27;20123;-47
2024/03/16 00:16:04;;;;;;;7.68;0.98;;;18.60;69.50;;;;;;5116008;28;20171;-49
2024/03/16 00:18:31;;;;;;;4.85;0.68;;;18.80;69.60;;;;;;5116018;28;20068;-46
2024/03/16 00:20:58;;;;;;;2.53;0.98;;;18.80;69.40;;;;;;5115900;28;20060;-48
2024/03/16 00:23:24;;;;;;;3.40;1.02;;;18.70;70.30;;;;;;5116038;27;20510;-46
2024/03/16 00:25:51;;;;;;;6.28;1.15;;;18.60;70.70;;;;;;5109451;27;20068;-56
2024/03/16 00:28:17;;;;;;;7.80;1.35;;;18.70;71.50;;;;;;5114631;27;20119;-47
2024/03/16 00:30:43;;;;;;;5.88;0.90;;;18.60;72.70;;;;;;5120843;27;20077;-47
2024/03/16 00:33:10;;;;;;;4.20;0.88;;;18.50;73.80;;;;;;5109086;27;20557;-48
2024/03/16 00:35:36;;;;;;;5.40;0.90;;;18.40;74.90;;;;;;5111187;27;20517;-56
2024/03/16 00:38:03;;;;;;;6.18;1.20;;;18.30;75.20;;;;;;5109466;27;20072;-49
2024/03/16 00:40:29;;;;;;;5.68;0.90;;;18.40;75.30;;;;;;5111861;27;20080;-50
2024/03/16 00:42:56;;;;;;;5.65;1.40;;;18.30;75.50;;;;;;5113092;28;20194;-51
2024/03/16 00:45:23;;;;;;;5.50;3.17;;;18.20;75.60;;;;;;5112280;28;20156;-49
2024/03/16 00:47:49;;;;;;;2.75;1.27;;;18.30;76.60;;;;;;5116778;27;20067;-50
2024/03/16 00:50:15;;;;;;;4.38;1.30;;;18.30;76.20;;;;;;5123325;27;20068;-49
2024/03/16 00:52:42;;;;;;;6.05;1.38;;;18.30;75.70;;;;;;5123519;27;20102;-48
2024/03/16 00:55:09;;;;;;;21.00;10.05;;;18.50;75.20;;;;;;5117523;27;20190;-49
2024/03/16 00:57:35;;;;;;;11.88;3.58;;;18.50;75.70;;;;;;5119575;27;20577;-49
2024/03/16 01:00:03;;;;;;;7.40;2.03;;;18.50;76.00;;;;;;5118082;27;20103;-48
2024/03/16 01:02:30;;;;;;;4.40;1.40;;;18.50;75.50;;;;;;5112037;27;20507;-51
2024/03/16 01:04:57;;;;;;;3.17;1.17;;;18.30;76.10;;;;;;5113873;27;20429;-49
2024/03/16 01:07:23;;;;;;;3.42;1.00;;;18.10;76.30;;;;;;5108551;27;20076;-49
2024/03/16 01:09:49;;;;;;;1.70;0.68;;;17.90;76.70;;;;;;5103208;28;20080;-49
2024/03/16 01:12:16;;;;;;;6.78;1.55;;;17.90;76.80;;;;;;5112221;27;20099;-48
2024/03/16 01:14:43;;;;;;;6.57;1.20;;;17.90;77.00;;;;;;5112967;27;20137;-54
2024/03/16 01:17:09;;;;;;;7.25;1.10;;;17.80;77.80;;;;;;5119298;27;20068;-50
2024/03/16 01:19:38;;;;;;;4.30;1.02;;;17.80;78.90;;;;;;5124758;27;20072;-52
2024/03/16 01:22:04;;;;;;;5.32;1.65;;;17.80;79.50;;;;;;5131223;27;20418;-51
2024/03/16 01:24:30;;;;;;;2.92;1.10;;;17.70;80.60;;;;;;5113472;27;20191;-47
2024/03/16 01:26:57;;;;;;;9.18;1.40;;;17.70;81.70;;;;;;5099428;27;20489;-52
2024/03/16 01:29:24;;;;;;;7.82;1.38;;;17.60;82.40;;;;;;5114705;28;20574;-52
2024/03/16 01:31:50;;;;;;;3.20;0.80;;;17.50;82.40;;;;;;5109976;28;20195;-48
2024/03/16 01:34:16;;;;;;;7.75;1.60;;;17.50;82.90;;;;;;5102169;28;20088;-48
2024/03/16 01:36:43;;;;;;;5.03;1.45;;;17.50;83.40;;;;;;5105704;28;20064;-49
2024/03/16 01:39:15;;;;;;;1.92;1.00;;;17.60;83.20;;;;;;5112894;27;20103;-58
2024/03/16 01:41:41;;;;;;;9.23;1.88;;;17.60;83.30;;;;;;5111242;27;20153;-53
2024/03/16 01:44:11;;;;;;;4.60;1.55;;;17.60;83.50;;;;;;5109281;27;20090;-53
2024/03/16 01:46:41;;;;;;;6.70;1.98;;;17.60;83.60;;;;;;5093793;28;20092;-52
2024/03/16 01:49:09;;;;;;;13.05;1.70;;;17.50;84.30;;;;;;5100904;27;20064;-55
2024/03/16 01:51:37;;;;;;;9.07;1.80;;;17.50;84.80;;;;;;5111955;28;20102;-51
2024/03/16 01:54:05;;;;;;;5.40;1.50;;;17.40;82.80;;;;;;5096293;28;20464;-48
2024/03/16 01:56:35;;;;;;;8.07;1.10;;;17.40;83.50;;;;;;5094043;28;20065;-52
2024/03/16 01:59:02;;;;;;;6.70;1.00;;;17.30;83.40;;;;;;5094225;28;20530;-50
2024/03/16 02:01:30;;;;;;;9.02;1.58;;;17.30;83.90;;;;;;5103923;27;20066;-50
2024/03/16 02:03:59;;;;;;;8.30;1.42;;;17.30;84.10;;;;;;5118276;27;20191;-53
2024/03/16 02:06:28;;;;;;;4.68;1.20;;;17.30;84.10;;;;;;5112175;27;20080;-48
2024/03/16 02:08:54;;;;;;;9.60;1.35;;;17.20;83.90;;;;;;5111528;28;20074;-52
2024/03/16 02:11:22;;;;;;;7.75;0.90;;;17.20;84.40;;;;;;5113881;28;20516;-48
2024/03/16 02:13:49;;;;;;;4.53;1.23;;;17.20;84.30;;;;;;5113977;28;20092;-47
2024/03/16 02:16:16;;;;;;;7.05;1.08;;;17.10;84.40;;;;;;5112656;28;20079;-48
2024/03/16 02:18:42;;;;;;;3.85;1.00;;;17.20;84.60;;;;;;5113991;28;20561;-49
2024/03/16 02:21:09;;;;;;;6.55;1.50;;;17.20;84.90;;;;;;5113664;28;20414;-48
2024/03/16 02:23:36;;;;;;;4.82;1.90;;;17.10;85.00;;;;;;5114085;27;20179;-51
2024/03/16 02:26:04;;;;;;;5.00;1.13;;;17.20;86.20;;;;;;5112481;28;20109;-53
2024/03/16 02:28:31;;;;;;;10.13;1.85;;;17.10;87.60;;;;;;5113910;28;20115;-49
2024/03/16 02:30:57;;;;;;;2.80;1.05;;;17.10;89.90;;;;;;5111314;27;20075;-47
2024/03/16 02:33:23;;;;;;;2.58;1.33;;;17.00;90.30;;;;;;5112929;28;20092;-47
2024/03/16 02:35:50;;;;;;;3.83;1.13;;;17.00;90.40;;;;;;5113513;28;20079;-48
2024/03/16 02:38:17;;;;;;;7.55;1.30;;;17.00;90.20;;;;;;5113134;28;20061;-51
2024/03/16 02:40:43;;;;;;;5.72;1.92;;;17.00;90.30;;;;;;5113422;28;20526;-53
2024/03/16 02:43:09;;;;;;;6.47;2.20;;;17.00;90.30;;;;;;5113145;27;20071;-49
2024/03/16 02:45:36;;;;;;;9.50;1.98;;;17.00;90.20;;;;;;5114306;28;20153;-50
2024/03/16 02:48:04;;;;;;;4.65;1.60;;;16.90;89.90;;;;;;5113697;28;20064;-50
2024/03/16 02:50:32;;;;;;;4.43;1.48;;;16.80;89.60;;;;;;5113339;28;20060;-49
2024/03/16 02:52:59;;;;;;;9.25;2.10;;;16.90;90.10;;;;;;5112870;28;20099;-50
2024/03/16 02:55:26;;;;;;;7.60;1.98;;;16.90;90.20;;;;;;5113163;28;20094;-47
2024/03/16 02:57:53;;;;;;;8.07;2.15;;;16.90;90.20;;;;;;5111401;28;20116;-51
2024/03/16 03:00:21;;;;;;;4.72;1.50;;;17.00;90.10;;;;;;5111555;28;20114;-50
2024/03/16 03:02:48;;;;;;;15.73;2.03;;;17.00;89.50;;;;;;5112982;28;20074;-49
2024/03/16 03:05:19;;;;;;;6.85;1.60;;;17.00;90.20;;;;;;5113049;28;20060;-48
2024/03/16 03:07:46;;;;;;;11.18;1.83;;;16.90;90.00;;;;;;5112880;28;20072;-47
2024/03/16 03:10:12;;;;;;;6.35;1.75;;;16.90;90.00;;;;;;5112561;28;20151;-48
2024/03/16 03:12:38;;;;;;;8.32;1.80;;;16.80;90.00;;;;;;5112484;28;20529;-52
2024/03/16 03:15:09;;;;;;;7.32;1.30;;;16.80;90.30;;;;;;5112639;28;20451;-48
2024/03/16 03:17:35;;;;;;;10.48;1.95;;;16.80;90.40;;;;;;5112666;28;20075;-50
2024/03/16 03:20:04;;;;;;;9.65;2.08;;;16.70;90.70;;;;;;5112357;28;20113;-51
2024/03/16 03:22:30;;;;;;;10.85;2.28;;;16.70;91.00;;;;;;5112630;28;20096;-51
2024/03/16 03:24:57;;;;;;;7.90;2.15;;;16.70;91.00;;;;;;5112504;28;20121;-46
2024/03/16 03:27:24;;;;;;;11.85;2.33;;;16.70;91.00;;;;;;5112418;28;20539;-47
2024/03/16 03:29:51;;;;;;;7.05;1.98;;;16.80;91.00;;;;;;5112227;28;20108;-49
2024/03/16 03:32:18;;;;;;;10.65;2.10;;;16.80;91.00;;;;;;5112069;28;20179;-51
2024/03/16 03:34:44;;;;;;;10.40;2.33;;;16.70;90.60;;;;;;5112530;28;20064;-50
2024/03/16 03:37:12;;;;;;;11.13;2.28;;;16.70;90.90;;;;;;5112302;28;20510;-50
2024/03/16 03:39:38;;;;;;;11.10;1.83;;;16.70;90.60;;;;;;5112598;28;20529;-52
2024/03/16 03:42:05;;;;;;;8.68;1.75;;;16.70;90.40;;;;;;5092322;28;20518;-47
2024/03/16 03:44:38;;;;;;;5.13;1.85;;;16.60;90.20;;;;;;5091706;28;20068;-52
2024/03/16 03:47:07;;;;;;;9.48;2.22;;;16.60;90.10;;;;;;5091360;28;20076;-48
2024/03/16 03:49:35;;;;;;;8.05;2.00;;;16.70;90.10;;;;;;5091658;28;20068;-50
2024/03/16 03:52:05;;;;;;;8.52;1.75;;;16.60;89.80;;;;;;5095703;28;20122;-49
2024/03/16 03:54:31;;;;;;;6.38;1.30;;;16.60;89.20;;;;;;5093644;28;20068;-47
2024/03/16 03:56:58;;;;;;;11.25;1.77;;;16.60;89.00;;;;;;5095326;28;20304;-50
2024/03/16 03:59:24;;;;;;;4.03;1.23;;;16.50;88.90;;;;;;5103285;28;20493;-49
2024/03/16 04:01:52;;;;;;;9.80;1.30;;;16.50;88.80;;;;;;5091416;28;20074;-51
2024/03/16 04:04:19;;;;;;;7.45;1.20;;;16.50;88.70;;;;;;5111371;28;20079;-54
2024/03/16 04:06:46;;;;;;;5.95;1.90;;;16.50;88.60;;;;;;5112515;28;20516;-52
2024/03/16 04:09:14;;;;;;;4.45;1.60;;;16.50;88.20;;;;;;5097047;28;20073;-52
2024/03/16 04:11:40;;;;;;;6.93;1.50;;;16.50;88.40;;;;;;5099636;28;20651;-47
2024/03/16 04:14:07;;;;;;;7.72;1.42;;;16.40;88.60;;;;;;5095342;28;20118;-50
2024/03/16 04:16:34;;;;;;;10.82;1.30;;;16.30;89.60;;;;;;5098251;28;20080;-51
2024/03/16 04:19:00;;;;;;;5.85;1.45;;;16.30;90.20;;;;;;5098262;28;20071;-51
2024/03/16 04:21:27;;;;;;;8.05;1.73;;;16.20;90.30;;;;;;5101151;28;20068;-52
2024/03/16 04:23:53;;;;;;;7.28;1.70;;;16.20;91.40;;;;;;5101879;28;20147;-52
2024/03/16 04:26:20;;;;;;;8.50;2.08;;;16.00;93.20;;;;;;5100854;28;20129;-50
2024/03/16 04:28:46;;;;;;;5.45;1.40;;;15.90;94.80;;;;;;5101248;28;20548;-54
2024/03/16 04:31:12;;;;;;;4.22;1.23;;;15.80;96.30;;;;;;5105455;28;20452;-48
2024/03/16 04:33:39;;;;;;;1.75;0.90;;;15.60;97.60;;;;;;5102481;28;20096;-54
2024/03/16 04:36:07;;;;;;;1.98;1.05;;;15.50;98.90;;;;;;5104859;28;20060;-58
2024/03/16 04:38:34;;;;;;;6.00;1.30;;;15.40;99.90;;;;;;5104613;28;20374;-53
2024/03/16 04:41:00;;;;;;;8.63;1.45;;;15.50;99.90;;;;;;5101938;28;20068;-54
2024/03/16 04:43:26;;;;;;;3.85;1.30;;;15.30;99.90;;;;;;5101797;28;20080;-52
2024/03/16 04:45:53;;;;;;;6.35;1.48;;;15.30;99.90;;;;;;5103742;28;20571;-54
2024/03/16 04:48:19;;;;;;;6.88;1.52;;;15.30;99.90;;;;;;5101105;28;20098;-50
2024/03/16 04:50:46;;;;;;;2.35;1.10;;;15.30;99.90;;;;;;5096770;28;20434;-55
2024/03/16 04:53:13;;;;;;;4.47;0.80;;;15.30;99.90;;;;;;5104711;28;20128;-51
2024/03/16 04:55:40;;;;;;;6.93;2.90;;;15.40;99.90;;;;;;5099634;27;20160;-51
2024/03/16 04:58:07;;;;;;;3.45;0.90;;;15.40;99.90;;;;;;5105394;28;20159;-53
2024/03/16 05:00:35;;;;;;;7.80;1.10;;;15.50;99.90;;;;;;5108371;28;20117;-51
2024/03/16 05:03:01;;;;;;;1.38;0.93;;;15.50;99.90;;;;;;5107669;28;20079;-51
2024/03/16 05:05:28;;;;;;;3.17;1.00;;;15.60;99.90;;;;;;5106509;28;20554;-53
2024/03/16 05:07:54;;;;;;;2.65;0.82;;;15.60;99.90;;;;;;5108224;28;20060;-53
2024/03/16 05:10:21;;;;;;;3.88;1.25;;;15.50;99.90;;;;;;5102551;27;20075;-54
2024/03/16 05:12:49;;;;;;;1.98;0.90;;;15.50;99.90;;;;;;5103521;28;20103;-53
2024/03/16 05:15:15;;;;;;;2.85;0.90;;;15.40;99.90;;;;;;5103734;27;20083;-53
2024/03/16 05:17:42;;;;;;;2.25;0.70;;;15.40;99.90;;;;;;5108305;28;20068;-54
2024/03/16 05:20:11;;;;;;;3.35;0.88;;;15.40;99.90;;;;;;5109860;28;20073;-51
2024/03/16 05:22:38;;;;;;;3.78;1.13;;;15.30;99.90;;;;;;5107218;28;20537;-51
2024/03/16 05:25:05;;;;;;;7.88;1.13;;;15.30;99.90;;;;;;5098854;28;20435;-57
2024/03/16 05:27:32;;;;;;;2.08;0.90;;;15.40;99.90;;;;;;5108495;28;20123;-50
2024/03/16 05:29:58;;;;;;;3.85;0.98;;;15.40;99.90;;;;;;5107943;28;20715;-51
2024/03/16 05:32:25;;;;;;;6.35;1.20;;;15.40;99.90;;;;;;5107821;28;20201;-47
2024/03/16 05:34:51;;;;;;;5.28;1.23;;;15.40;99.90;;;;;;5110011;28;20072;-48
2024/03/16 05:37:18;;;;;;;3.28;1.55;;;15.40;99.90;;;;;;5100412;28;20117;-50
2024/03/16 05:39:44;;;;;;;4.80;1.20;;;15.40;99.90;;;;;;5102011;28;20091;-51
2024/03/16 05:42:11;;;;;;;3.10;1.27;;;15.50;99.90;;;;;;5106391;28;20140;-57
2024/03/16 05:44:37;;;;;;;2.45;1.10;;;15.40;99.90;;;;;;5105410;28;20076;-56
2024/03/16 05:47:04;;;;;;;2.35;1.00;;;15.40;99.90;;;;;;5102068;28;20068;-61
2024/03/16 05:49:30;;;;;;;2.97;1.00;;;15.40;99.90;;;;;;5108022;28;20532;-55
2024/03/16 05:51:57;;;;;;;4.85;1.20;;;15.30;99.90;;;;;;5098484;27;20530;-57
2024/03/16 05:54:23;;;;;;;3.45;1.20;;;15.20;99.90;;;;;;5107850;28;20072;-56
2024/03/16 05:56:50;;;;;;;2.22;1.27;;;15.00;99.90;;;;;;5109169;27;20115;-55
2024/03/16 05:59:16;;;;;;;3.58;1.10;;;15.00;99.90;;;;;;5105400;28;20121;-58
2024/03/16 06:01:43;;;;;;;2.70;0.75;;;14.90;99.90;;;;;;5103774;28;20064;-56
2024/03/16 06:04:09;;;;;;;1.70;1.00;;;14.80;99.90;;;;;;5098533;28;20444;-56
2024/03/16 06:06:36;;;;;;;2.00;0.93;;;14.80;99.90;;;;;;5105590;27;20418;-55
2024/03/16 06:09:02;;;;;;;2.17;0.80;;;14.70;99.90;;;;;;5106560;27;20073;-58
2024/03/16 06:11:29;;;;;;;2.13;1.40;;;14.70;99.90;;;;;;5104794;28;20068;-57
2024/03/16 06:13:55;;;;;;;7.00;2.40;;;14.60;99.90;;;;;;5108372;28;20107;-55
2024/03/16 06:16:21;;;;;;;3.50;2.17;;;14.60;99.90;;;;;;5103997;28;20533;-56
2024/03/16 06:18:48;;;;;;;3.70;1.83;;;14.60;99.90;;;;;;5107306;27;20068;-55
2024/03/16 06:21:15;;;;;;;5.57;3.53;;;14.70;99.90;;;;;;5101530;28;20064;-56
2024/03/16 06:23:41;;;;;;;20.67;15.98;;;14.70;99.90;;;;;;5096683;28;20096;-56
2024/03/16 06:26:16;;;;;;;3.22;1.63;;;14.60;99.90;;;;;;5111687;28;20428;-58
2024/03/16 06:28:47;;;;;;;2.60;1.48;;;14.60;99.90;;;;;;5110065;27;20084;-58
2024/03/16 06:31:13;;;;;;;3.38;1.48;;;14.50;99.90;;;;;;5098359;28;20096;-54
2024/03/16 06:33:45;;;;;;;4.50;1.95;;;14.50;99.90;;;;;;5109815;28;20104;-56
2024/03/16 06:36:12;;;;;;;7.22;2.40;;;14.40;99.90;;;;;;5098900;28;20072;-56
2024/03/16 06:38:39;;;;;;;5.03;1.75;;;14.40;99.90;;;;;;5106532;28;20068;-56
2024/03/16 06:41:05;;;;;;;6.20;1.95;;;14.50;99.90;;;;;;5106585;28;20165;-58
2024/03/16 06:43:32;;;;;;;3.25;1.90;;;14.50;99.90;;;;;;5100570;28;20206;-56
2024/03/16 06:46:00;;;;;;;5.25;2.08;;;14.50;99.90;;;;;;5107633;28;20090;-55
2024/03/16 06:48:26;;;;;;;3.70;2.20;;;14.60;99.90;;;;;;5103071;28;20076;-55
2024/03/16 06:50:53;;;;;;;5.22;1.70;;;14.60;99.90;;;;;;5103482;28;20080;-58
2024/03/16 06:53:19;;;;;;;4.13;1.52;;;14.60;99.90;;;;;;5108740;28;20088;-56
2024/03/16 06:55:50;;;;;;;4.78;2.13;;;14.60;99.90;;;;;;5104693;28;20159;-57
2024/03/16 06:58:16;;;;;;;5.10;1.90;;;14.60;99.90;;;;;;5106551;28;20557;-57
2024/03/16 07:00:43;;;;;;;4.78;1.60;;;14.60;99.90;;;;;;5092739;28;20095;-56
2024/03/16 07:03:10;;;;;;;2.33;1.30;;;14.70;99.90;;;;;;5101242;28;20064;-58
2024/03/16 07:05:37;;;;;;;2.03;1.27;;;14.70;99.90;;;;;;5107143;28;20068;-56
2024/03/16 07:08:04;;;;;;;3.95;2.25;;;14.80;99.90;;;;;;5106201;28;20072;-57
2024/03/16 07:10:31;;;;;;;5.53;1.98;;;14.90;99.90;;;;;;5102145;27;20065;-56
2024/03/16 07:12:57;;;;;;;4.20;2.00;;;14.80;99.90;;;;;;5101992;28;20123;-56
2024/03/16 07:15:23;;;;;;;7.95;2.22;;;14.80;99.90;;;;;;5105776;28;20068;-58
2024/03/16 07:17:50;;;;;;;6.63;1.80;;;14.80;99.90;;;;;;5100458;27;20069;-57
2024/03/16 07:20:16;;;;;;;3.05;1.15;;;14.90;99.90;;;;;;5100786;28;20155;-55
2024/03/16 07:22:43;;;;;;;3.63;0.90;;;14.90;99.90;;;;;;5098592;28;20491;-54
2024/03/16 07:25:10;;;;;;;2.53;0.88;;;14.90;99.90;;;;;;5107912;28;20096;-56
2024/03/16 07:27:36;;;;;;;4.05;0.90;;;14.80;99.90;;;;;;5109714;27;20127;-56
2024/03/16 07:30:04;;;;;;;4.45;0.88;;;14.80;99.90;;;;;;5101506;27;20118;-58
2024/03/16 07:32:31;;;;;;;1.85;0.80;;;14.70;99.90;;;;;;5107733;28;20100;-58
2024/03/16 07:34:57;;;;;;;5.30;0.90;;;14.80;99.90;;;;;;5102408;28;20069;-58
2024/03/16 07:37:24;;;;;;;4.55;0.95;;;14.90;99.90;;;;;;5103383;28;20068;-56
2024/03/16 07:39:50;;;;;;;2.90;0.80;;;14.90;99.90;;;;;;5107386;28;20084;-57
2024/03/16 07:42:16;;;;;;;4.18;0.93;;;15.00;99.90;;;;;;5105714;28;20084;-57
2024/03/16 07:44:43;;;;;;;4.25;0.70;;;14.90;99.90;;;;;;5106314;28;20071;-58
2024/03/16 07:47:09;;;;;;;3.88;0.90;;;14.90;99.90;;;;;;5100854;28;20526;-58
2024/03/16 07:49:36;;;;;;;3.25;0.90;;;15.00;99.90;;;;;;5107039;28;20152;-56
2024/03/16 07:52:03;;;;;;;1.65;0.75;;;15.00;99.90;;;;;;5105411;28;20083;-55
2024/03/16 07:54:30;;;;;;;2.63;0.57;;;15.00;99.90;;;;;;5109075;28;20064;-56
2024/03/16 07:56:58;;;;;;;3.50;1.27;;;15.10;99.90;;;;;;5107275;28;20155;-56
2024/03/16 07:59:25;;;;;;;2.55;0.77;;;15.00;99.90;;;;;;5103519;28;20525;-59
2024/03/16 08:01:52;;;;;;;1.98;0.70;;;15.00;99.90;;;;;;5103389;28;20453;-54
2024/03/16 08:04:18;;;;;;;3.42;0.70;;;15.00;99.90;;;;;;5097293;28;20160;-56
2024/03/16 08:06:46;;;;;;;3.08;0.70;;;15.00;99.90;;;;;;5100793;28;20078;-55
2024/03/16 08:09:12;;;;;;;1.45;0.60;;;15.00;99.90;;;;;;5101082;28;20064;-58
2024/03/16 08:11:41;;;;;;;1.10;0.60;;;15.00;99.90;;;;;;5105798;28;20755;-56
2024/03/16 08:14:11;;;;;;;4.05;0.80;;;15.00;99.90;;;;;;5110560;28;20107;-55
2024/03/16 08:16:37;;;;;;;3.88;0.70;;;15.10;99.90;;;;;;5097606;28;20514;-57
2024/03/16 08:19:05;;;;;;;2.22;0.60;;;15.10;99.90;;;;;;5104652;28;20065;-55
2024/03/16 08:21:32;;;;;;;4.10;0.90;;;15.00;99.90;;;;;;5100817;28;20426;-56
2024/03/16 08:24:00;;;;;;;5.55;1.00;;;15.00;99.90;;;;;;5104899;28;20362;-57
2024/03/16 08:26:28;;;;;;;5.88;1.00;;;15.10;99.90;;;;;;5103041;28;20068;-56
2024/03/16 08:28:54;;;;;;;2.88;0.80;;;15.20;99.90;;;;;;5103167;28;20068;-57
2024/03/16 08:31:21;;;;;;;3.55;0.80;;;15.20;99.90;;;;;;5107213;28;20091;-54
2024/03/16 08:33:47;;;;;;;5.15;0.90;;;15.20;99.90;;;;;;5110828;28;20145;-57
2024/03/16 08:36:15;;;;;;;4.13;0.80;;;15.10;99.90;;;;;;5106594;28;20471;-56
2024/03/16 08:38:41;;;;;;;3.08;0.90;;;14.90;99.90;;;;;;5101412;28;20144;-57
2024/03/16 08:41:08;;;;;;;4.10;0.80;;;14.90;99.90;;;;;;5109165;28;20125;-57
2024/03/16 08:43:34;;;;;;;1.02;0.68;;;14.80;99.90;;;;;;5111892;28;20575;-54
2024/03/16 08:46:06;;;;;;;5.80;0.90;;;14.80;99.90;;;;;;5108372;28;20418;-56
2024/03/16 08:48:33;;;;;;;3.40;1.00;;;14.90;99.90;;;;;;5113375;28;20115;-56
2024/03/16 08:50:59;;;;;;;3.70;1.00;;;14.90;99.90;;;;;;5100328;28;20159;-55
2024/03/16 08:53:26;;;;;;;2.10;0.80;;;14.80;99.90;;;;;;5107621;28;20092;-56
2024/03/16 08:55:58;;;;;;;9.63;0.98;;;14.70;99.90;;;;;;5108298;28;20076;-57
2024/03/16 08:58:28;;;;;;;3.50;0.90;;;14.60;99.90;;;;;;5107371;28;20075;-56
2024/03/16 09:00:55;;;;;;;4.32;1.08;;;14.50;99.90;;;;;;5111001;28;20072;-55
2024/03/16 09:03:21;;;;;;;2.28;0.80;;;14.50;99.90;;;;;;5104687;28;20071;-55
2024/03/16 09:05:48;;;;;;;1.48;0.70;;;14.40;99.90;;;;;;5104962;28;20068;-57
2024/03/16 09:08:14;;;;;;;3.60;1.02;;;14.30;99.90;;;;;;5105345;27;20093;-57
2024/03/16 09:10:41;;;;;;;4.82;1.02;;;14.30;99.90;;;;;;5102840;28;20075;-55
2024/03/16 09:13:08;;;;;;;2.28;0.73;;;14.20;99.90;;;;;;5105614;28;20084;-55
2024/03/16 09:15:34;;;;;;;3.53;1.17;;;14.20;99.90;;;;;;5102716;28;20133;-55
2024/03/16 09:18:00;;;;;;;2.15;1.00;;;14.20;99.90;;;;;;5108167;28;20104;-58
2024/03/16 09:20:27;;;;;;;3.40;1.10;;;14.20;99.90;;;;;;5105633;28;20068;-55
2024/03/16 09:22:56;;;;;;;1.27;0.80;;;14.10;99.90;;;;;;5109250;28;20463;-54
2024/03/16 09:25:22;;;;;;;8.27;1.10;;;14.10;99.90;;;;;;5109319;28;20137;-55
2024/03/16 09:27:49;;;;;;;2.95;0.90;;;14.00;99.90;;;;;;5109294;28;20564;-55
2024/03/16 09:30:18;;;;;;;5.00;1.00;;;14.00;99.90;;;;;;5108324;28;20064;-55
2024/03/16 09:32:44;;;;;;;4.18;1.23;;;14.00;99.90;;;;;;5105863;28;20099;-55
2024/03/16 09:35:10;;;;;;;5.20;1.25;;;13.90;99.90;;;;;;5110020;28;20079;-55
2024/03/16 09:37:37;;;;;;;3.17;1.10;;;14.00;99.90;;;;;;5110685;28;20075;-55
2024/03/16 09:40:09;;;;;;;7.28;1.00;;;13.90;99.90;;;;;;5102262;27;20386;-56
2024/03/16 09:42:39;;;;;;;10.05;1.55;;;13.80;99.90;;;;;;5107489;28;20080;-56
2024/03/16 09:45:27;;;;;;;3.70;1.20;;;13.80;99.90;;;;;;5103585;28;20455;-57
2024/03/16 09:47:55;;;;;;;6.65;1.58;;;13.80;99.90;;;;;;5109566;28;20080;-56
2024/03/16 09:50:29;;;;;;;4.55;1.45;;;13.50;99.90;;;;;;5108008;28;20072;-55
2024/03/16 09:52:56;;;;;;;6.80;1.83;;;13.50;99.90;;;;;;5104364;28;20533;-56
2024/03/16 09:55:25;;;;;;;6.30;1.90;;;13.40;99.90;;;;;;5106258;28;20072;-54
2024/03/16 09:57:52;;;;;;;10.77;2.30;;;13.50;99.90;;;;;;5102860;28;20080;-58
2024/03/16 10:00:21;;;;;;;4.65;2.53;;;13.50;99.90;;;;;;5102267;28;20413;-54
2024/03/16 10:02:50;;;;;;;6.78;2.13;;;13.60;99.90;;;;;;5098169;27;20441;-57
2024/03/16 10:05:17;;;;;;;7.90;2.10;;;13.60;99.90;;;;;;5103347;28;20064;-55
2024/03/16 10:07:45;;;;;;;6.28;2.20;;;13.60;99.90;;;;;;5105892;28;20493;-56
2024/03/16 10:10:20;;;;;;;3.33;2.20;;;13.60;99.90;;;;;;5105827;27;20068;-55
2024/03/16 10:12:46;;;;;;;10.43;2.88;;;13.50;99.90;;;;;;5108716;28;20653;-56
2024/03/16 10:15:22;;;;;;;3.90;2.08;;;13.40;99.90;;;;;;5108353;28;20502;-55
2024/03/16 10:17:53;;;;;;;8.00;1.90;;;13.40;99.90;;;;;;5105365;28;20064;-55
2024/03/16 10:20:19;;;;;;;13.52;1.98;;;13.40;99.90;;;;;;5105238;28;20075;-55
2024/03/16 10:22:50;;;;;;;3.70;1.70;;;13.30;99.90;;;;;;5106784;27;20071;-55
2024/03/16 10:25:18;;;;;;;10.13;2.30;;;13.30;99.90;;;;;;5105953;28;20079;-60
2024/03/16 10:27:45;;;;;;;8.48;5.50;;;13.30;99.90;;;;;;5097628;28;20111;-56
2024/03/16 10:30:17;;;;;;;13.15;10.15;;;13.20;99.90;;;;;;5106781;28;20557;-55
2024/03/16 10:32:47;;;;;;;15.23;9.90;;;13.10;99.90;;;;;;5105925;28;20098;-55
2024/03/16 10:35:15;;;;;;;19.52;9.93;;;13.20;99.90;;;;;;5106855;28;20556;-53
2024/03/16 10:37:48;;;;;;;13.88;7.22;;;13.10;99.90;;;;;;5102710;28;20536;-54
2024/03/16 10:40:21;;;;;;;11.52;5.20;;;13.00;99.90;;;;;;5109210;28;20514;-54
2024/03/16 10:42:53;;;;;;;15.43;5.28;;;13.10;99.90;;;;;;5106933;28;20075;-59
2024/03/16 10:45:20;;;;;;;10.15;4.63;;;13.20;99.90;;;;;;5109508;28;20121;-54
2024/03/16 10:47:55;;;;;;;9.77;3.53;;;13.10;99.90;;;;;;5106883;28;20121;-54
2024/03/16 10:50:29;;;;;;;9.32;3.58;;;13.00;99.90;;;;;;5101367;28;20162;-54
2024/03/16 10:52:56;;;;;;;11.75;3.25;;;13.00;99.90;;;;;;5097789;28;20187;-57
2024/03/16 10:55:25;;;;;;;11.40;3.65;;;13.10;99.90;;;;;;5102625;28;20064;-57
2024/03/16 10:57:55;;;;;;;6.13;3.42;;;13.00;99.90;;;;;;5107557;28;20159;-56
2024/03/16 11:00:44;;;;;;;5.03;2.75;;;12.90;99.90;;;;;;5107151;27;20113;-56
2024/03/16 11:03:22;;;;;;;7.28;2.58;;;12.90;99.90;;;;;;5108112;27;20083;-57
2024/03/16 11:05:54;;;;;;;25.98;15.45;;;12.90;99.90;;;;;;5104683;28;20109;-56
2024/03/16 11:08:37;;;;;;;4.72;2.47;;;12.90;99.90;;;;;;5107388;28;20068;-56
2024/03/16 11:11:08;;;;;;;7.18;2.42;;;12.80;99.90;;;;;;5106601;28;20410;-57
2024/03/16 11:13:39;;;;;;;5.82;2.10;;;12.90;99.90;;;;;;5105774;28;20148;-56
2024/03/16 11:16:27;;;;;;;8.40;2.55;;;12.90;99.90;;;;;;5104816;27;20177;-59
2024/03/16 11:19:07;;;;;;;4.60;2.00;;;13.00;99.90;;;;;;5104192;28;20432;-56
2024/03/16 11:21:39;;;;;;;4.00;2.30;;;12.90;99.90;;;;;;5106709;28;20099;-55
2024/03/16 11:24:15;;;;;;;9.57;3.13;;;12.70;99.90;;;;;;5102793;28;20072;-57
2024/03/16 11:26:45;;;;;;;10.98;2.55;;;12.50;99.90;;;;;;5100049;28;20262;-57
2024/03/16 11:29:19;;;;;;;6.88;2.35;;;12.50;99.90;;;;;;5103921;28;20068;-55
2024/03/16 11:31:53;;;;;;;3.75;2.03;;;12.60;99.90;;;;;;5103666;27;20080;-56
2024/03/16 11:34:21;;;;;;;5.45;2.60;;;12.60;99.90;;;;;;5105927;28;20591;-55
2024/03/16 11:36:51;;;;;;;5.05;2.63;;;12.60;99.90;;;;;;5105263;28;20072;-56
2024/03/16 11:39:24;;;;;;;5.45;2.22;;;12.50;99.90;;;;;;5103281;28;20418;-56
2024/03/16 11:41:53;;;;;;;4.82;2.33;;;12.40;99.90;;;;;;5106503;28;20132;-57
2024/03/16 11:44:20;;;;;;;9.32;2.90;;;12.50;99.90;;;;;;5101505;28;20537;-56
2024/03/16 11:46:48;;;;;;;5.18;2.35;;;12.40;99.90;;;;;;5092429;28;20072;-56
2024/03/16 11:49:16;;;;;;;5.72;2.70;;;12.50;99.90;;;;;;5107143;28;20529;-57
2024/03/16 11:51:54;;;;;;;5.60;2.92;;;12.50;99.90;;;;;;5105277;28;20068;-55
2024/03/16 11:54:21;;;;;;;5.68;2.70;;;12.50;99.90;;;;;;5109304;28;20080;-56
2024/03/16 11:56:48;;;;;;;8.15;3.20;;;12.60;99.90;;;;;;5104497;28;20078;-56
2024/03/16 11:59:18;;;;;;;5.40;3.47;;;12.60;99.90;;;;;;5104708;28;20076;-54
2024/03/16 12:01:48;;;;;;;7.72;3.50;;;12.40;99.90;;;;;;5105384;28;20402;-55
2024/03/16 12:04:17;;;;;;;7.85;3.45;;;12.40;99.90;;;;;;5105992;28;20076;-57
2024/03/16 12:06:46;;;;;;;6.63;3.28;;;12.40;99.90;;;;;;5107678;28;20079;-55
2024/03/16 12:09:17;;;;;;;5.97;3.17;;;12.40;99.90;;;;;;5109882;27;20114;-54
2024/03/16 12:11:51;;;;;;;7.10;3.20;;;12.40;99.90;;;;;;5092440;28;20136;-56
2024/03/16 12:14:21;;;;;;;7.63;3.30;;;12.50;99.90;;;;;;5113107;27;20099;-59
2024/03/16 12:16:48;;;;;;;11.13;3.20;;;12.50;99.90;;;;;;5111364;28;20470;-57
2024/03/16 12:19:15;;;;;;;6.50;3.35;;;12.40;99.90;;;;;;5110944;27;20413;-56
2024/03/16 12:21:43;;;;;;;5.75;3.45;;;12.40;99.90;;;;;;5112892;27;20494;-54
2024/03/16 12:24:19;;;;;;;9.63;4.50;;;12.30;99.90;;;;;;5109700;27;20076;-55
2024/03/16 12:26:47;;;;;;;13.40;5.27;;;12.30;99.90;;;;;;5110477;28;20100;-54
2024/03/16 12:29:18;;;;;;;13.80;6.47;;;12.30;99.90;;;;;;5109088;28;20578;-54
2024/03/16 12:31:54;;;;;;;15.13;6.63;;;12.20;99.90;;;;;;5110366;28;20070;-57
2024/03/16 12:34:21;;;;;;;16.80;6.50;;;12.20;99.90;;;;;;5111779;27;20068;-56
2024/03/16 12:36:47;;;;;;;14.02;7.18;;;12.20;99.90;;;;;;5110425;28;20064;-56
2024/03/16 12:39:15;;;;;;;14.95;6.72;;;12.30;99.90;;;;;;5108877;28;20171;-56
2024/03/16 12:41:50;;;;;;;13.40;6.32;;;12.40;99.90;;;;;;5103420;28;20074;-56
2024/03/16 12:44:21;;;;;;;18.00;6.65;;;12.50;99.90;;;;;;5108684;28;20079;-56
2024/03/16 12:46:48;;;;;;;18.50;7.32;;;12.60;99.90;;;;;;5108610;28;20072;-55
2024/03/16 12:49:14;;;;;;;19.70;7.45;;;12.70;99.90;;;;;;5108427;28;20159;-55